createdAt,value
2017-07-02T00:00:54.541Z,89.47
2017-07-02T00:03:24.361Z,89.36
2017-07-02T00:05:54.075Z,89.44
2017-07-02T00:08:23.989Z,89.37
2017-07-02T00:10:53.765Z,89.29
2017-07-02T00:13:23.620Z,88.79
2017-07-02T00:15:53.404Z,88.57
2017-07-02T00:18:23.865Z,88.17
2017-07-02T00:20:53.683Z,88.17
2017-07-02T00:23:24.295Z,88.35
2017-07-02T00:25:54.132Z,88.31
2017-07-02T00:28:23.878Z,87.80
2017-07-02T00:30:53.586Z,87.52
2017-07-02T00:33:23.477Z,87.76
2017-07-02T00:35:53.264Z,87.83
2017-07-02T00:38:23.538Z,88.29
2017-07-02T00:40:53.348Z,88.14
2017-07-02T00:43:23.257Z,88.19
2017-07-02T00:45:52.998Z,87.43
2017-07-02T00:48:22.781Z,87.36
2017-07-02T00:50:52.534Z,87.22
2017-07-02T00:53:22.334Z,86.74
2017-07-02T00:55:52.079Z,86.21
2017-07-02T00:58:21.866Z,86.37
2017-07-02T01:00:51.694Z,86.55
2017-07-02T01:03:21.522Z,86.94
2017-07-02T01:05:51.318Z,87.04
2017-07-02T01:08:21.206Z,87.10
2017-07-02T01:10:51.028Z,87.11
2017-07-02T01:13:21.650Z,87.40
2017-07-02T01:15:51.398Z,87.36
2017-07-02T01:18:21.107Z,87.64
2017-07-02T01:20:51.003Z,87.12
2017-07-02T01:23:20.754Z,87.74
2017-07-02T01:25:51.351Z,88.65
2017-07-02T01:28:21.062Z,88.52
2017-07-02T01:30:50.810Z,88.90
2017-07-02T01:33:20.695Z,88.48
2017-07-02T01:35:50.519Z,88.16
2017-07-02T01:38:20.325Z,88.21
2017-07-02T01:40:50.090Z,88.99
2017-07-02T01:43:19.878Z,88.96
2017-07-02T01:45:49.709Z,89.53
2017-07-02T01:48:19.147Z,88.92
2017-07-02T01:50:49.000Z,88.51
2017-07-02T01:53:18.811Z,88.23
2017-07-02T01:55:47.916Z,88.71
2017-07-02T01:58:16.952Z,88.37
2017-07-02T02:00:58.009Z,88.35
2017-07-02T02:03:27.481Z,88.58
2017-07-02T02:05:57.226Z,88.67
2017-07-02T02:08:27.018Z,88.89
2017-07-02T02:10:56.739Z,88.65
2017-07-02T02:13:26.459Z,88.49
2017-07-02T02:15:56.290Z,88.57
2017-07-02T02:18:26.107Z,88.76
2017-07-02T02:20:55.865Z,88.93
2017-07-02T02:23:25.647Z,88.73
2017-07-02T02:25:55.427Z,89.34
2017-07-02T02:28:25.197Z,89.43
2017-07-02T02:30:55.772Z,89.60
2017-07-02T02:33:25.689Z,89.30
2017-07-02T02:35:55.530Z,89.82
2017-07-02T02:38:25.320Z,88.91
2017-07-02T02:40:55.061Z,88.98
2017-07-02T02:43:24.879Z,88.36
2017-07-02T02:45:55.481Z,88.08
2017-07-02T02:48:25.205Z,88.11
2017-07-02T02:50:55.012Z,87.81
2017-07-02T02:53:24.778Z,87.46
2017-07-02T02:55:54.569Z,87.92
2017-07-02T02:58:24.316Z,87.84
2017-07-02T03:00:54.096Z,87.35
2017-07-02T03:03:23.989Z,87.74
2017-07-02T03:05:53.722Z,87.34
2017-07-02T03:08:23.551Z,87.14
2017-07-02T03:10:53.439Z,87.51
2017-07-02T03:13:23.178Z,86.71
2017-07-02T03:15:53.069Z,86.22
2017-07-02T03:18:22.874Z,85.73
2017-07-02T03:20:53.461Z,85.87
2017-07-02T03:23:23.335Z,85.66
2017-07-02T03:25:53.049Z,85.93
2017-07-02T03:28:22.763Z,85.45
2017-07-02T03:30:52.516Z,85.89
2017-07-02T03:33:22.334Z,85.48
2017-07-02T03:35:52.726Z,85.30
2017-07-02T03:38:22.538Z,85.49
2017-07-02T03:40:52.350Z,85.18
2017-07-02T03:43:22.097Z,85.41
2017-07-02T03:45:51.905Z,85.21
2017-07-02T03:48:21.797Z,84.60
2017-07-02T03:50:51.549Z,85.56
2017-07-02T03:53:22.038Z,86.01
2017-07-02T03:55:51.755Z,85.59
2017-07-02T03:58:21.642Z,85.39
2017-07-02T04:00:52.411Z,85.41
2017-07-02T04:03:22.159Z,85.22
2017-07-02T04:05:51.938Z,85.13
2017-07-02T04:08:21.674Z,83.76
2017-07-02T04:10:50.696Z,84.04
2017-07-02T04:13:20.466Z,83.45
2017-07-02T04:15:50.209Z,82.96
2017-07-02T04:18:19.992Z,83.13
2017-07-02T04:20:50.318Z,82.50
2017-07-02T04:23:20.215Z,82.71
2017-07-02T04:25:50.729Z,81.82
2017-07-02T04:28:21.358Z,81.83
2017-07-02T04:30:51.187Z,81.26
2017-07-02T04:33:21.681Z,79.89
2017-07-02T04:35:51.521Z,79.28
2017-07-02T04:38:21.331Z,79.82
2017-07-02T04:40:51.068Z,77.91
2017-07-02T04:43:20.859Z,79.13
2017-07-02T04:45:50.659Z,77.54
2017-07-02T04:48:20.480Z,77.01
2017-07-02T04:50:51.744Z,77.33
2017-07-02T04:53:21.510Z,76.47
2017-07-02T04:55:51.213Z,77.17
2017-07-02T04:58:21.039Z,76.45
2017-07-02T05:00:50.779Z,75.83
2017-07-02T05:03:20.568Z,75.14
2017-07-02T05:05:50.334Z,74.87
2017-07-02T05:08:20.199Z,75.05
2017-07-02T05:10:50.017Z,75.19
2017-07-02T05:13:19.771Z,74.22
2017-07-02T05:15:49.467Z,74.70
2017-07-02T05:18:19.231Z,74.00
2017-07-02T05:20:48.986Z,73.06
2017-07-02T05:23:18.889Z,73.66
2017-07-02T05:25:48.705Z,74.55
2017-07-02T05:28:18.446Z,75.12
2017-07-02T05:30:48.400Z,73.37
2017-07-02T05:33:18.345Z,73.06
2017-07-02T05:35:49.021Z,73.09
2017-07-02T05:38:18.862Z,72.39
2017-07-02T05:40:48.658Z,72.29
2017-07-02T05:43:18.483Z,72.65
2017-07-02T05:45:48.278Z,71.92
2017-07-02T05:48:18.071Z,73.31
2017-07-02T05:50:48.908Z,72.68
2017-07-02T05:53:18.723Z,72.44
2017-07-02T05:55:48.466Z,72.24
2017-07-02T05:58:18.825Z,73.32
2017-07-02T06:00:48.624Z,73.29
2017-07-02T06:03:18.314Z,74.72
2017-07-02T06:05:48.212Z,74.74
2017-07-02T06:08:17.979Z,74.87
2017-07-02T06:10:47.843Z,75.17
2017-07-02T06:13:17.606Z,75.01
2017-07-02T06:15:48.114Z,74.38
2017-07-02T06:18:17.850Z,74.10
2017-07-02T06:20:47.642Z,74.23
2017-07-02T06:23:17.361Z,73.31
2017-07-02T06:25:47.813Z,73.28
2017-07-02T06:28:17.587Z,71.86
2017-07-02T06:30:47.419Z,71.20
2017-07-02T06:33:17.928Z,70.65
2017-07-02T06:35:47.709Z,70.01
2017-07-02T06:38:17.471Z,70.07
2017-07-02T06:40:47.290Z,69.39
2017-07-02T06:43:17.090Z,69.95
2017-07-02T06:45:46.829Z,69.68
2017-07-02T06:48:16.538Z,69.99
2017-07-02T06:50:46.331Z,70.46
2017-07-02T06:53:16.061Z,70.74
2017-07-02T06:55:45.755Z,70.84
2017-07-02T06:58:15.573Z,71.36
2017-07-02T07:00:45.424Z,71.49
2017-07-02T07:03:15.720Z,70.87
2017-07-02T07:05:45.466Z,70.12
2017-07-02T07:08:16.510Z,69.77
2017-07-02T07:10:48.247Z,69.71
2017-07-02T07:13:19.320Z,69.36
2017-07-02T07:15:50.817Z,69.61
2017-07-02T07:18:22.246Z,69.30
2017-07-02T07:20:52.508Z,68.25
2017-07-02T07:23:22.243Z,68.33
2017-07-02T07:25:52.062Z,68.03
2017-07-02T07:28:21.854Z,67.78
2017-07-02T07:30:51.670Z,67.87
2017-07-02T07:33:22.106Z,68.71
2017-07-02T07:35:51.883Z,67.15
2017-07-02T07:38:21.658Z,67.33
2017-07-02T07:40:52.777Z,66.83
2017-07-02T07:43:23.209Z,66.08
2017-07-02T07:45:53.813Z,66.01
2017-07-02T07:48:23.746Z,65.23
2017-07-02T07:50:55.279Z,64.65
2017-07-02T07:53:26.566Z,66.05
2017-07-02T07:55:57.257Z,65.37
2017-07-02T07:58:27.420Z,64.61
2017-07-02T08:00:59.743Z,65.09
2017-07-02T08:03:30.274Z,64.27
2017-07-02T08:06:01.490Z,62.86
2017-07-02T08:08:32.525Z,61.47
2017-07-02T08:11:02.978Z,60.48
2017-07-02T08:13:33.660Z,59.78
2017-07-02T08:16:04.509Z,59.30
2017-07-02T08:18:35.630Z,59.50
2017-07-02T08:21:06.597Z,59.88
2017-07-02T08:23:37.621Z,59.25
2017-07-02T08:26:08.595Z,59.27
2017-07-02T08:28:39.770Z,60.03
2017-07-02T08:31:11.879Z,61.07
2017-07-02T08:33:45.789Z,61.48
2017-07-02T08:36:19.706Z,61.91
2017-07-02T08:38:52.026Z,60.77
2017-07-02T08:41:25.393Z,60.23
2017-07-02T08:43:58.114Z,60.56
2017-07-02T08:46:30.846Z,58.90
2017-07-02T08:49:03.123Z,58.51
2017-07-02T08:51:33.693Z,57.55
2017-07-02T08:54:05.015Z,57.05
2017-07-02T08:56:37.017Z,56.52
2017-07-02T08:59:08.011Z,56.34
2017-07-02T09:01:39.404Z,56.49
2017-07-02T09:04:09.563Z,56.38
2017-07-02T09:06:40.340Z,56.32
2017-07-02T09:09:10.669Z,55.16
2017-07-02T09:11:41.303Z,55.61
2017-07-02T09:14:10.982Z,56.76
2017-07-02T09:16:40.770Z,56.87
2017-07-02T09:19:10.565Z,57.95
2017-07-02T09:21:42.291Z,58.26
2017-07-02T09:24:14.822Z,58.37
2017-07-02T09:26:48.495Z,57.54
2017-07-02T09:29:19.708Z,57.02
2017-07-02T09:31:51.739Z,55.93
2017-07-02T09:34:25.385Z,55.37
2017-07-02T09:36:58.748Z,55.54
2017-07-02T09:39:31.683Z,55.27
2017-07-02T09:42:04.359Z,55.83
2017-07-02T09:44:37.790Z,56.70
2017-07-02T09:47:10.455Z,57.46
2017-07-02T09:49:44.455Z,59.16
2017-07-02T09:52:16.476Z,59.36
2017-07-02T09:54:48.288Z,59.80
2017-07-02T09:57:19.991Z,58.86
2017-07-02T09:59:53.095Z,58.73
2017-07-02T10:02:26.764Z,58.16
2017-07-02T10:04:59.682Z,58.73
2017-07-02T10:07:32.614Z,58.24
2017-07-02T10:10:06.955Z,58.80
2017-07-02T10:12:38.375Z,59.40
2017-07-02T10:15:10.610Z,59.52
2017-07-02T10:17:42.788Z,60.03
2017-07-02T10:20:17.109Z,59.37
2017-07-02T10:22:50.205Z,58.31
2017-07-02T10:25:22.942Z,57.86
2017-07-02T10:27:55.364Z,56.47
2017-07-02T10:30:27.643Z,56.19
2017-07-02T10:33:01.059Z,55.97
2017-07-02T10:35:32.007Z,56.42
2017-07-02T10:38:02.831Z,55.85
2017-07-02T10:40:33.053Z,55.76
2017-07-02T10:43:03.582Z,55.80
2017-07-02T10:45:34.401Z,54.68
2017-07-02T10:48:04.911Z,54.91
2017-07-02T10:50:37.147Z,54.75
2017-07-02T10:53:08.499Z,54.74
2017-07-02T10:55:40.456Z,54.40
2017-07-02T10:58:11.804Z,54.38
2017-07-02T11:00:42.737Z,53.13
2017-07-02T11:03:14.646Z,52.53
2017-07-02T11:05:45.509Z,52.96
2017-07-02T11:08:15.266Z,52.72
2017-07-02T11:10:45.699Z,53.63
2017-07-02T11:13:15.416Z,54.02
2017-07-02T11:15:45.150Z,54.64
2017-07-02T11:18:14.982Z,54.72
2017-07-02T11:20:44.670Z,55.46
2017-07-02T11:23:14.443Z,55.05
2017-07-02T11:25:44.391Z,55.56
2017-07-02T11:28:14.140Z,55.24
2017-07-02T11:30:43.941Z,54.79
2017-07-02T11:33:13.769Z,55.26
2017-07-02T11:35:43.522Z,55.27
2017-07-02T11:38:13.386Z,55.42
2017-07-02T11:40:43.196Z,54.26
2017-07-02T11:43:13.047Z,54.66
2017-07-02T11:45:43.557Z,53.76
2017-07-02T11:48:13.386Z,53.59
2017-07-02T11:50:43.189Z,54.17
2017-07-02T11:53:12.974Z,54.21
2017-07-02T11:55:42.522Z,54.20
2017-07-02T11:58:12.302Z,55.59
2017-07-02T12:00:42.090Z,54.08
2017-07-02T12:03:12.450Z,54.75
2017-07-02T12:05:42.127Z,55.19
2017-07-02T12:08:11.872Z,55.68
2017-07-02T12:10:41.602Z,55.68
2017-07-02T12:13:11.403Z,55.87
2017-07-02T12:15:41.134Z,56.10
2017-07-02T12:18:10.802Z,57.20
2017-07-02T12:20:39.872Z,56.62
2017-07-02T12:23:08.963Z,56.45
2017-07-02T12:25:38.434Z,56.09
2017-07-02T12:28:07.455Z,55.66
2017-07-02T12:30:36.431Z,55.01
2017-07-02T12:33:05.840Z,55.47
2017-07-02T12:35:34.849Z,54.14
2017-07-02T12:38:04.009Z,53.90
2017-07-02T12:40:33.031Z,53.82
2017-07-02T12:43:02.774Z,53.36
2017-07-02T12:45:32.358Z,53.39
2017-07-02T12:48:02.087Z,53.40
2017-07-02T12:50:31.885Z,53.92
2017-07-02T12:53:01.594Z,53.93
2017-07-02T12:55:31.358Z,54.21
2017-07-02T12:58:01.076Z,55.09
2017-07-02T13:00:30.850Z,55.10
2017-07-02T13:03:00.567Z,54.97
2017-07-02T13:05:30.816Z,55.08
2017-07-02T13:08:00.563Z,55.40
2017-07-02T13:10:31.170Z,54.83
2017-07-02T13:13:01.007Z,54.38
2017-07-02T13:15:30.863Z,54.91
2017-07-02T13:18:00.606Z,54.96
2017-07-02T13:20:30.435Z,54.67
2017-07-02T13:23:00.208Z,54.74
2017-07-02T13:25:30.026Z,55.46
2017-07-02T13:27:59.727Z,56.03
2017-07-02T13:30:29.466Z,55.87
2017-07-02T13:32:59.310Z,56.25
2017-07-02T13:35:29.630Z,57.51
2017-07-02T13:37:59.467Z,57.40
2017-07-02T13:40:29.231Z,56.73
2017-07-02T13:42:58.942Z,57.09
2017-07-02T13:45:28.704Z,57.71
2017-07-02T13:47:58.473Z,57.70
2017-07-02T13:50:28.239Z,57.64
2017-07-02T13:52:58.563Z,58.41
2017-07-02T13:55:28.429Z,58.38
2017-07-02T13:57:58.189Z,58.21
2017-07-02T14:00:27.976Z,58.97
2017-07-02T14:02:57.704Z,58.65
2017-07-02T14:05:27.526Z,59.21
2017-07-02T14:07:57.218Z,59.57
2017-07-02T14:10:27.016Z,59.74
2017-07-02T14:12:56.758Z,59.74
2017-07-02T14:15:27.482Z,59.13
2017-07-02T14:17:57.170Z,59.64
2017-07-02T14:20:26.929Z,59.06
2017-07-02T14:22:56.654Z,58.86
2017-07-02T14:25:28.498Z,58.94
2017-07-02T14:27:59.058Z,58.81
2017-07-02T14:30:29.474Z,58.33
2017-07-02T14:33:01.573Z,58.38
2017-07-02T14:35:32.139Z,58.79
2017-07-02T14:38:01.909Z,59.56
2017-07-02T14:40:31.593Z,59.31
2017-07-02T14:43:01.273Z,59.23
2017-07-02T14:45:31.714Z,59.17
2017-07-02T14:48:01.525Z,59.35
2017-07-02T14:50:31.337Z,59.45
2017-07-02T14:53:01.047Z,59.08
2017-07-02T14:55:31.074Z,59.49
2017-07-02T14:58:00.828Z,59.74
2017-07-02T15:00:30.627Z,59.13
2017-07-02T15:03:00.352Z,59.19
2017-07-02T15:05:30.629Z,59.01
2017-07-02T15:08:00.867Z,60.12
2017-07-02T15:10:30.629Z,60.26
2017-07-02T15:13:01.728Z,60.73
2017-07-02T15:15:31.476Z,61.45
2017-07-02T15:18:02.044Z,60.78
2017-07-02T15:20:34.839Z,61.70
2017-07-02T15:23:06.797Z,61.79
2017-07-02T15:25:40.088Z,61.54
2017-07-02T15:28:12.009Z,62.08
2017-07-02T15:30:44.735Z,62.29
2017-07-02T15:33:16.640Z,61.93
2017-07-02T15:35:49.284Z,62.11
2017-07-02T15:38:20.406Z,62.88
2017-07-02T15:40:50.196Z,63.43
2017-07-02T15:43:22.510Z,63.87
2017-07-02T15:45:53.524Z,64.36
2017-07-02T15:48:23.506Z,64.47
2017-07-02T15:50:55.856Z,64.93
2017-07-02T15:53:28.640Z,65.24
2017-07-02T15:56:01.615Z,65.31
2017-07-02T15:58:32.803Z,64.98
2017-07-02T16:01:03.023Z,65.40
2017-07-02T16:03:33.032Z,65.77
2017-07-02T16:06:04.045Z,65.89
2017-07-02T16:08:33.790Z,66.53
2017-07-02T16:11:03.689Z,66.36
2017-07-02T16:13:34.162Z,66.53
2017-07-02T16:16:04.069Z,67.11
2017-07-02T16:18:33.891Z,67.71
2017-07-02T16:21:03.594Z,68.09
2017-07-02T16:23:33.872Z,68.30
2017-07-02T16:26:03.714Z,68.30
2017-07-02T16:28:36.337Z,68.36
2017-07-02T16:31:06.739Z,68.56
2017-07-02T16:33:37.050Z,69.08
2017-07-02T16:36:07.273Z,68.84
2017-07-02T16:38:39.601Z,68.27
2017-07-02T16:41:11.334Z,69.01
2017-07-02T16:43:43.404Z,68.96
2017-07-02T16:46:14.443Z,68.18
2017-07-02T16:48:46.001Z,68.68
2017-07-02T16:51:16.443Z,68.68
2017-07-02T16:53:46.424Z,69.29
2017-07-02T16:56:16.189Z,69.82
2017-07-02T16:58:46.031Z,72.51
2017-07-02T17:01:15.801Z,73.04
2017-07-02T17:03:45.788Z,72.15
2017-07-02T17:06:17.036Z,72.15
2017-07-02T17:08:48.619Z,72.27
2017-07-02T17:11:19.457Z,73.94
2017-07-02T17:13:50.049Z,73.81
2017-07-02T17:16:20.219Z,75.82
2017-07-02T17:18:50.031Z,78.72
2017-07-02T17:21:20.275Z,79.10
2017-07-02T17:23:52.476Z,80.19
2017-07-02T17:26:24.390Z,79.27
2017-07-02T17:28:56.764Z,80.97
2017-07-02T17:31:29.491Z,81.35
2017-07-02T17:34:00.494Z,82.50
2017-07-02T17:36:33.704Z,80.50
2017-07-02T17:39:06.985Z,81.38
2017-07-02T17:41:38.084Z,81.63
2017-07-02T17:44:08.666Z,80.65
2017-07-02T17:46:40.777Z,81.70
2017-07-02T17:49:12.298Z,81.99
2017-07-02T17:51:44.243Z,82.31
2017-07-02T17:54:16.144Z,82.65
2017-07-02T17:56:48.744Z,82.75
2017-07-02T17:59:19.991Z,82.73
2017-07-02T18:01:51.736Z,83.13
2017-07-02T18:04:25.167Z,83.70
2017-07-02T18:06:56.866Z,82.43
2017-07-02T18:09:28.735Z,80.92
2017-07-02T18:12:01.475Z,80.37
2017-07-02T18:14:32.646Z,80.09
2017-07-02T18:17:05.844Z,80.84
2017-07-02T18:19:37.463Z,81.58
2017-07-02T18:22:07.209Z,81.68
2017-07-02T18:24:38.553Z,81.55
2017-07-02T18:27:09.580Z,81.02
2017-07-02T18:29:39.626Z,81.70
2017-07-02T18:32:13.769Z,81.81
2017-07-02T18:34:44.578Z,81.98
2017-07-02T18:37:16.169Z,81.98
2017-07-02T18:39:47.730Z,82.31
2017-07-02T18:42:18.886Z,81.83
2017-07-02T18:44:50.411Z,81.24
2017-07-02T18:47:20.609Z,81.42
2017-07-02T18:49:52.233Z,81.85
2017-07-02T18:52:24.521Z,82.02
2017-07-02T18:54:57.089Z,82.06
2017-07-02T18:57:29.690Z,81.88
2017-07-02T19:00:01.041Z,81.64
2017-07-02T19:02:30.881Z,81.36
2017-07-02T19:05:04.587Z,81.60
2017-07-02T19:07:34.923Z,80.65
2017-07-02T19:10:06.839Z,80.03
2017-07-02T19:12:40.628Z,79.71
2017-07-02T19:15:14.065Z,80.51
2017-07-02T19:17:46.586Z,81.05
2017-07-02T19:20:19.242Z,81.64
2017-07-02T19:22:52.098Z,82.08
2017-07-02T19:25:24.639Z,81.67
2017-07-02T19:27:58.332Z,80.48
2017-07-02T19:30:31.451Z,81.66
2017-07-02T19:33:02.086Z,80.50
2017-07-02T19:35:31.566Z,80.85
2017-07-02T19:38:01.223Z,80.19
2017-07-02T19:40:31.032Z,80.20
2017-07-02T19:43:00.876Z,80.41
2017-07-02T19:45:30.630Z,80.66
2017-07-02T19:48:00.389Z,81.38
2017-07-02T19:50:30.126Z,81.21
2017-07-02T19:52:59.809Z,81.25
2017-07-02T19:55:30.222Z,80.66
2017-07-02T19:58:00.081Z,79.81
2017-07-02T20:00:29.866Z,80.26
2017-07-02T20:03:00.670Z,81.13
2017-07-02T20:05:30.422Z,81.69
2017-07-02T20:08:00.390Z,81.94
2017-07-02T20:10:30.226Z,82.10
2017-07-02T20:12:59.811Z,82.21
2017-07-02T20:15:29.403Z,81.99
2017-07-02T20:17:59.129Z,82.35
2017-07-02T20:20:28.827Z,82.05
2017-07-02T20:22:58.582Z,82.51
2017-07-02T20:25:28.358Z,81.87
2017-07-02T20:27:58.067Z,82.87
2017-07-02T20:30:27.713Z,82.83
2017-07-02T20:32:57.500Z,82.95
2017-07-02T20:35:27.247Z,83.09
2017-07-02T20:37:56.936Z,83.52
2017-07-02T20:40:26.693Z,83.57
2017-07-02T20:42:56.562Z,83.64
2017-07-02T20:45:27.093Z,83.08
2017-07-02T20:47:56.797Z,83.15
2017-07-02T20:50:26.621Z,83.76
2017-07-02T20:52:56.334Z,84.05
2017-07-02T20:55:26.153Z,83.94
2017-07-02T20:57:56.555Z,83.66
2017-07-02T21:00:27.008Z,84.04
2017-07-02T21:02:56.719Z,84.54
2017-07-02T21:05:27.003Z,84.43
2017-07-02T21:07:56.759Z,84.19
2017-07-02T21:10:26.519Z,84.14
2017-07-02T21:12:56.294Z,84.33
2017-07-02T21:15:26.014Z,84.67
2017-07-02T21:17:55.752Z,84.37
2017-07-02T21:20:26.048Z,84.17
2017-07-02T21:22:55.753Z,83.83
2017-07-02T21:25:25.578Z,84.45
2017-07-02T21:27:55.319Z,84.24
2017-07-02T21:30:25.005Z,84.89
2017-07-02T21:32:54.719Z,84.94
2017-07-02T21:35:24.431Z,84.76
2017-07-02T21:37:54.228Z,84.40
2017-07-02T21:40:24.135Z,84.78
2017-07-02T21:42:53.876Z,85.22
2017-07-02T21:45:23.607Z,84.95
2017-07-02T21:47:53.356Z,85.03
2017-07-02T21:50:23.229Z,85.49
2017-07-02T21:52:53.038Z,85.36
2017-07-02T21:55:22.896Z,85.52
2017-07-02T21:57:53.363Z,85.58
2017-07-02T22:00:23.269Z,84.96
2017-07-02T22:02:53.018Z,84.59
2017-07-02T22:05:22.737Z,84.07
2017-07-02T22:07:52.513Z,84.30
2017-07-02T22:10:22.363Z,84.08
2017-07-02T22:12:52.231Z,83.65
2017-07-02T22:15:21.894Z,83.17
2017-07-02T22:17:51.635Z,83.20
2017-07-02T22:20:21.423Z,83.68
2017-07-02T22:22:51.197Z,83.59
2017-07-02T22:25:20.886Z,83.62
2017-07-02T22:27:50.666Z,82.92
2017-07-02T22:30:20.344Z,82.24
2017-07-02T22:32:50.091Z,82.14
2017-07-02T22:35:19.800Z,81.76
2017-07-02T22:37:49.532Z,81.29
2017-07-02T22:40:19.858Z,80.38
2017-07-02T22:42:49.663Z,80.41
2017-07-02T22:45:19.373Z,79.86
2017-07-02T22:47:49.757Z,80.02
2017-07-02T22:50:20.134Z,80.63
2017-07-02T22:52:50.430Z,79.88
2017-07-02T22:55:20.843Z,79.07
2017-07-02T22:57:51.442Z,78.97
2017-07-02T23:00:21.959Z,79.82
2017-07-02T23:02:52.323Z,80.03
2017-07-02T23:05:22.099Z,80.08
2017-07-02T23:07:51.897Z,80.15
2017-07-02T23:10:21.654Z,79.99
2017-07-02T23:12:51.438Z,80.23
2017-07-02T23:15:21.882Z,79.78
2017-07-02T23:17:51.589Z,79.57
2017-07-02T23:20:21.312Z,79.21
2017-07-02T23:22:51.119Z,79.18
2017-07-02T23:25:20.803Z,79.40
2017-07-02T23:27:50.645Z,79.13
2017-07-02T23:30:20.373Z,79.18
2017-07-02T23:32:50.078Z,79.10
2017-07-02T23:35:19.810Z,79.25
2017-07-02T23:37:49.636Z,80.48
2017-07-02T23:40:20.133Z,80.21
2017-07-02T23:42:49.851Z,80.05
2017-07-02T23:45:19.663Z,80.46
2017-07-02T23:47:49.400Z,80.59
2017-07-02T23:50:20.117Z,80.87
2017-07-02T23:52:49.872Z,80.91
2017-07-02T23:55:19.745Z,80.67
2017-07-02T23:57:49.462Z,80.85
